createdAt,value
2022-12-26T00:02:28.475Z,31.70
2022-12-26T00:05:14.456Z,32.37
2022-12-26T00:07:59.555Z,30.40
2022-12-26T00:10:44.649Z,30.97
2022-12-26T00:13:38.969Z,31.50
2022-12-26T00:16:26.891Z,31.43
2022-12-26T00:19:12.709Z,31.20
2022-12-26T00:21:58.024Z,32.23
2022-12-26T00:24:43.281Z,33.37
2022-12-26T00:27:28.468Z,31.33
2022-12-26T00:30:13.987Z,32.43
2022-12-26T00:32:59.398Z,32.83
2022-12-26T00:35:44.161Z,34.10
2022-12-26T00:38:29.033Z,33.47
2022-12-26T00:41:15.606Z,32.77
2022-12-26T00:44:00.841Z,34.20
2022-12-26T00:46:46.104Z,35.40
2022-12-26T00:50:11.376Z,34.27
2022-12-26T00:52:36.612Z,34.37
2022-12-26T00:55:22.224Z,33.43
2022-12-26T00:58:07.528Z,34.20
2022-12-26T01:00:54.318Z,34.63
2022-12-26T01:03:39.502Z,33.13
2022-12-26T01:06:24.846Z,34.47
2022-12-26T01:09:09.628Z,34.30
2022-12-26T01:11:55.029Z,34.83
2022-12-26T01:14:40.106Z,35.77
2022-12-26T01:17:26.958Z,32.87
2022-12-26T01:20:12.194Z,33.77
2022-12-26T01:22:57.320Z,32.47
2022-12-26T01:26:18.577Z,31.67
2022-12-26T01:28:51.105Z,31.70
2022-12-26T01:31:36.254Z,30.47
2022-12-26T01:34:21.689Z,29.67
2022-12-26T01:37:06.848Z,31.67
2022-12-26T01:39:51.940Z,28.73
2022-12-26T01:42:40.829Z,30.20
2022-12-26T01:45:25.628Z,30.60
2022-12-26T01:48:20.649Z,29.90
2022-12-26T01:51:06.703Z,26.40
2022-12-26T01:53:55.650Z,28.30
2022-12-26T01:57:04.763Z,28.03
2022-12-26T01:59:51.976Z,28.17
2022-12-26T02:02:37.650Z,28.87
2022-12-26T02:05:25.005Z,28.77
2022-12-26T02:08:19.056Z,28.83
2022-12-26T02:11:17.685Z,29.77
2022-12-26T02:14:06.728Z,30.50
2022-12-26T02:16:51.652Z,30.73
2022-12-26T02:19:55.364Z,28.37
2022-12-26T02:22:49.674Z,29.87
2022-12-26T02:25:56.418Z,29.73
2022-12-26T02:28:56.797Z,30.03
2022-12-26T02:32:08.107Z,29.87
2022-12-26T02:35:20.824Z,30.27
2022-12-26T02:38:24.817Z,32.63
2022-12-26T02:41:15.799Z,27.70
2022-12-26T02:44:15.757Z,29.03
2022-12-26T02:47:15.777Z,31.00
2022-12-26T02:50:15.225Z,31.50
2022-12-26T02:53:14.597Z,31.73
2022-12-26T02:56:06.818Z,32.73
2022-12-26T02:59:18.032Z,29.93
2022-12-26T03:02:06.317Z,32.23
2022-12-26T03:04:54.315Z,30.57
2022-12-26T03:07:42.361Z,30.03
2022-12-26T03:10:35.037Z,30.70
2022-12-26T03:13:26.203Z,29.97
2022-12-26T03:16:13.641Z,30.83
2022-12-26T03:19:03.250Z,30.67
2022-12-26T03:21:48.459Z,31.40
2022-12-26T03:24:33.767Z,30.63
2022-12-26T03:27:18.875Z,30.67
2022-12-26T03:30:05.048Z,33.77
2022-12-26T03:32:50.366Z,31.37
2022-12-26T03:35:35.895Z,33.03
2022-12-26T03:38:26.756Z,33.83
2022-12-26T03:41:24.108Z,31.70
2022-12-26T03:44:41.479Z,32.43
2022-12-26T03:47:47.459Z,32.40
2022-12-26T03:50:32.644Z,32.57
2022-12-26T03:53:23.626Z,31.83
2022-12-26T03:56:21.696Z,30.67
2022-12-26T03:59:25.532Z,31.63
2022-12-26T04:02:12.041Z,31.87
2022-12-26T04:05:01.224Z,33.23
2022-12-26T04:07:58.290Z,34.10
2022-12-26T04:10:49.515Z,34.33
2022-12-26T04:13:59.236Z,35.20
2022-12-26T04:17:02.935Z,36.10
2022-12-26T04:20:06.547Z,35.93
2022-12-26T04:23:03.157Z,38.87
2022-12-26T04:26:15.542Z,38.43
2022-12-26T04:29:00.934Z,38.20
2022-12-26T04:31:57.276Z,39.67
2022-12-26T04:34:50.986Z,40.13
2022-12-26T04:37:42.865Z,39.87
2022-12-26T04:40:34.161Z,40.47
2022-12-26T04:43:47.092Z,40.43
2022-12-26T04:46:26.797Z,40.33
2022-12-26T04:49:15.866Z,37.93
2022-12-26T04:52:03.977Z,35.90
2022-12-26T04:54:51.642Z,33.37
2022-12-26T04:57:36.676Z,32.20
2022-12-26T05:00:23.891Z,33.33
2022-12-26T05:03:18.590Z,30.33
2022-12-26T05:06:05.055Z,30.50
2022-12-26T05:08:50.445Z,29.60
2022-12-26T05:11:35.755Z,30.30
2022-12-26T05:14:21.029Z,29.93
2022-12-26T05:17:07.123Z,29.00
2022-12-26T05:19:52.577Z,29.13
2022-12-26T05:22:41.566Z,29.83
2022-12-26T05:25:30.050Z,24.73
2022-12-26T05:28:16.454Z,23.43
2022-12-26T05:31:02.761Z,22.70
2022-12-26T05:33:47.803Z,21.03
2022-12-26T05:36:38.795Z,20.73
2022-12-26T05:39:24.630Z,20.00
2022-12-26T05:42:10.006Z,20.90
2022-12-26T05:44:55.442Z,21.07
2022-12-26T05:47:40.362Z,22.50
2022-12-26T05:50:25.702Z,25.00
2022-12-26T05:53:10.653Z,26.13
2022-12-26T05:55:55.863Z,28.17
2022-12-26T05:58:41.511Z,27.73
2022-12-26T06:01:28.348Z,24.30
2022-12-26T06:04:13.385Z,23.90
2022-12-26T06:06:58.465Z,24.53
2022-12-26T06:09:43.763Z,25.10
2022-12-26T06:12:29.101Z,26.07
2022-12-26T06:15:14.140Z,25.00
2022-12-26T06:17:59.363Z,23.00
2022-12-26T06:20:44.472Z,23.00
2022-12-26T06:23:30.217Z,23.43
2022-12-26T06:26:16.619Z,22.87
2022-12-26T06:29:01.713Z,21.10
2022-12-26T06:31:47.248Z,20.23
2022-12-26T06:34:32.663Z,20.03
2022-12-26T06:37:17.739Z,18.50
2022-12-26T06:40:02.574Z,18.30
2022-12-26T06:42:47.768Z,18.70
2022-12-26T06:45:32.895Z,18.80
2022-12-26T06:48:17.960Z,19.40
2022-12-26T06:51:04.620Z,20.57
2022-12-26T06:53:51.454Z,20.80
2022-12-26T06:56:36.795Z,19.27
2022-12-26T06:59:22.282Z,19.00
2022-12-26T07:02:10.545Z,20.13
2022-12-26T07:04:55.695Z,19.30
2022-12-26T07:07:41.325Z,19.53
2022-12-26T07:10:26.741Z,20.50
2022-12-26T07:13:11.944Z,18.43
2022-12-26T07:16:00.381Z,18.27
2022-12-26T07:18:45.891Z,18.00
2022-12-26T07:21:36.343Z,18.10
2022-12-26T07:24:25.072Z,18.27
2022-12-26T07:27:10.531Z,17.67
2022-12-26T07:29:55.885Z,18.50
2022-12-26T07:32:40.894Z,18.63
2022-12-26T07:35:25.835Z,20.17
2022-12-26T07:38:12.065Z,22.37
2022-12-26T07:40:57.925Z,22.77
2022-12-26T07:43:43.017Z,21.60
2022-12-26T07:46:27.878Z,21.30
2022-12-26T07:49:13.304Z,21.93
2022-12-26T07:51:58.472Z,22.33
2022-12-26T07:54:43.357Z,23.20
2022-12-26T07:57:48.107Z,21.83
2022-12-26T08:00:33.818Z,22.57
2022-12-26T08:03:19.332Z,20.40
2022-12-26T08:06:04.439Z,21.33
2022-12-26T08:08:51.629Z,21.40
2022-12-26T08:11:36.573Z,21.20
2022-12-26T08:14:21.606Z,20.50
2022-12-26T08:17:07.499Z,20.73
2022-12-26T08:19:52.870Z,19.97
2022-12-26T08:22:38.278Z,19.93
2022-12-26T08:25:24.240Z,18.33
2022-12-26T08:28:09.678Z,19.13
2022-12-26T08:30:55.083Z,17.97
2022-12-26T08:33:40.934Z,17.53
2022-12-26T08:36:27.088Z,15.27
2022-12-26T08:39:12.292Z,16.53
2022-12-26T08:41:57.203Z,15.20
2022-12-26T08:44:42.434Z,14.43
2022-12-26T08:47:27.390Z,14.13
2022-12-26T08:50:12.675Z,14.20
2022-12-26T08:52:58.113Z,11.83
2022-12-26T08:55:43.379Z,12.30
2022-12-26T08:58:29.851Z,11.63
2022-12-26T09:01:27.013Z,11.70
2022-12-26T09:04:12.377Z,11.43
2022-12-26T09:06:57.293Z,9.93
2022-12-26T09:09:42.419Z,10.53
2022-12-26T09:12:27.751Z,9.63
2022-12-26T09:15:12.932Z,9.63
2022-12-26T09:17:57.865Z,8.50
2022-12-26T09:20:43.306Z,8.33
2022-12-26T09:23:29.630Z,8.10
2022-12-26T09:26:19.400Z,8.40
2022-12-26T09:29:04.817Z,7.57
2022-12-26T09:31:49.684Z,7.70
2022-12-26T09:34:34.761Z,7.90
2022-12-26T09:37:20.210Z,7.00
2022-12-26T09:40:05.991Z,7.60
2022-12-26T09:43:19.481Z,6.70
2022-12-26T09:46:32.199Z,6.23
2022-12-26T09:49:41.042Z,6.90
2022-12-26T09:52:41.822Z,6.73
2022-12-26T09:55:49.075Z,6.47
2022-12-26T09:58:40.334Z,6.07
2022-12-26T10:01:30.770Z,6.23
2022-12-26T10:04:29.944Z,6.30
2022-12-26T10:07:42.161Z,5.00
2022-12-26T10:10:51.208Z,5.10
2022-12-26T10:13:57.064Z,4.93
2022-12-26T10:17:01.161Z,4.53
2022-12-26T10:20:01.175Z,4.90
2022-12-26T10:22:58.573Z,5.10
2022-12-26T10:25:55.918Z,4.80
2022-12-26T10:28:47.807Z,4.87
2022-12-26T10:31:48.326Z,4.27
2022-12-26T10:34:52.421Z,4.10
2022-12-26T10:37:41.864Z,4.60
2022-12-26T10:40:37.391Z,4.90
2022-12-26T10:43:28.269Z,4.20
2022-12-26T10:46:44.100Z,4.10
2022-12-26T10:49:29.708Z,4.40
2022-12-26T10:52:17.614Z,4.40
2022-12-26T10:55:29.004Z,4.20
2022-12-26T10:58:30.268Z,4.50
2022-12-26T11:01:37.292Z,4.33
2022-12-26T11:05:01.950Z,3.73
2022-12-26T11:07:33.832Z,3.80
2022-12-26T11:10:26.413Z,3.70
2022-12-26T11:13:19.788Z,3.40
2022-12-26T11:16:05.974Z,3.60
2022-12-26T11:18:51.877Z,3.50
2022-12-26T11:21:37.143Z,3.00
2022-12-26T11:24:22.134Z,3.60
2022-12-26T11:27:19.665Z,3.40
2022-12-26T11:30:15.732Z,3.30
2022-12-26T11:33:16.086Z,3.20
2022-12-26T11:36:16.350Z,3.20
2022-12-26T11:39:17.760Z,2.90
2022-12-26T11:42:19.610Z,3.47
2022-12-26T11:45:11.613Z,3.40
2022-12-26T11:47:59.667Z,3.10
2022-12-26T11:50:46.468Z,3.00
2022-12-26T11:53:31.762Z,3.37
2022-12-26T11:56:25.834Z,3.80
2022-12-26T11:59:22.332Z,3.67
2022-12-26T12:02:18.115Z,4.70
2022-12-26T12:05:15.253Z,4.97
2022-12-26T12:08:19.393Z,5.20
2022-12-26T12:11:21.758Z,4.77
2022-12-26T12:14:19.276Z,5.67
2022-12-26T12:17:37.323Z,4.67
2022-12-26T12:20:51.874Z,4.83
2022-12-26T12:23:59.553Z,4.40
2022-12-26T12:27:05.605Z,4.70
2022-12-26T12:30:15.437Z,4.30
2022-12-26T12:33:21.196Z,4.50
2022-12-26T12:36:37.106Z,4.57
2022-12-26T12:39:39.368Z,5.07
2022-12-26T12:42:48.095Z,4.13
2022-12-26T12:45:55.264Z,3.83
2022-12-26T12:49:06.349Z,3.90
2022-12-26T12:52:34.856Z,3.93
2022-12-26T12:55:41.989Z,3.90
2022-12-26T12:58:47.270Z,4.23
2022-12-26T13:01:42.366Z,3.50
2022-12-26T13:04:36.049Z,3.57
2022-12-26T13:07:27.229Z,3.67
2022-12-26T13:10:28.608Z,3.60
2022-12-26T13:13:22.138Z,4.00
2022-12-26T13:16:14.044Z,3.77
2022-12-26T13:19:10.241Z,3.80
2022-12-26T13:22:04.117Z,4.37
2022-12-26T13:24:56.563Z,3.40
2022-12-26T13:27:42.060Z,3.30
2022-12-26T13:30:27.526Z,2.73
2022-12-26T13:33:15.115Z,2.97
2022-12-26T13:36:03.724Z,3.97
2022-12-26T13:38:58.404Z,3.43
2022-12-26T13:41:51.990Z,3.10
2022-12-26T13:44:38.109Z,3.40
2022-12-26T13:47:36.923Z,3.93
2022-12-26T13:50:55.348Z,3.93
2022-12-26T13:53:41.852Z,3.27
2022-12-26T13:56:27.996Z,3.10
2022-12-26T13:59:32.251Z,3.07
2022-12-26T14:03:16.818Z,3.47
2022-12-26T14:06:15.013Z,3.37
2022-12-26T14:09:20.469Z,2.63
2022-12-26T14:12:44.702Z,2.60
2022-12-26T14:15:44.503Z,3.03
2022-12-26T14:18:58.526Z,2.97
2022-12-26T14:21:51.955Z,2.87
2022-12-26T14:25:01.507Z,3.17
2022-12-26T14:28:03.446Z,2.97
2022-12-26T14:31:09.651Z,3.10
2022-12-26T14:34:10.956Z,2.90
2022-12-26T14:37:13.083Z,2.70
2022-12-26T14:40:01.108Z,2.30
2022-12-26T14:43:17.594Z,2.80
2022-12-26T14:46:09.382Z,2.57
2022-12-26T14:48:58.293Z,2.03
2022-12-26T14:51:44.318Z,2.00
2022-12-26T14:54:37.929Z,1.90
2022-12-26T14:57:43.865Z,1.87
2022-12-26T15:00:30.776Z,2.20
2022-12-26T15:03:48.481Z,2.10
2022-12-26T15:06:43.032Z,1.97
2022-12-26T15:09:41.460Z,1.97
2022-12-26T15:12:48.050Z,2.00
2022-12-26T15:16:18.922Z,1.90
2022-12-26T15:19:19.517Z,2.00
2022-12-26T15:22:19.544Z,2.30
2022-12-26T15:25:23.213Z,2.43
2022-12-26T15:28:15.986Z,2.43
2022-12-26T15:31:13.643Z,2.57
2022-12-26T15:34:01.712Z,3.00
2022-12-26T15:37:00.540Z,2.67
2022-12-26T15:40:01.219Z,2.80
2022-12-26T15:42:59.147Z,2.77
2022-12-26T15:45:56.319Z,2.40
2022-12-26T15:48:59.431Z,2.30
2022-12-26T15:51:56.117Z,2.73
2022-12-26T15:55:05.788Z,2.50
2022-12-26T15:58:02.897Z,2.57
2022-12-26T16:00:54.514Z,2.50
2022-12-26T16:03:46.365Z,2.40
2022-12-26T16:06:56.571Z,2.40
2022-12-26T16:09:46.351Z,2.20
2022-12-26T16:12:34.921Z,2.20
2022-12-26T16:15:21.490Z,2.67
2022-12-26T16:18:19.004Z,2.50
2022-12-26T16:21:06.772Z,2.27
2022-12-26T16:23:54.284Z,2.50
2022-12-26T16:26:45.978Z,2.27
2022-12-26T16:29:32.074Z,3.03
2022-12-26T16:32:20.434Z,2.67
2022-12-26T16:35:07.946Z,3.07
2022-12-26T16:37:56.237Z,3.57
2022-12-26T16:40:49.345Z,3.20
2022-12-26T16:43:34.559Z,3.10
2022-12-26T16:46:22.687Z,2.97
2022-12-26T16:49:10.557Z,3.53
2022-12-26T16:51:56.067Z,3.60
2022-12-26T16:54:40.864Z,3.53
2022-12-26T16:57:26.433Z,3.67
2022-12-26T17:00:18.396Z,3.77
2022-12-26T17:03:08.872Z,4.00
2022-12-26T17:05:54.740Z,25.93
2022-12-26T17:08:47.282Z,3.97
2022-12-26T17:11:39.482Z,4.67
2022-12-26T17:14:31.245Z,4.30
2022-12-26T17:17:22.411Z,3.33
2022-12-26T17:20:22.839Z,3.23
2022-12-26T17:23:33.526Z,3.83
2022-12-26T17:26:30.239Z,3.40
2022-12-26T17:29:35.281Z,3.27
2022-12-26T17:32:30.148Z,2.83
2022-12-26T17:35:19.813Z,3.47
2022-12-26T17:38:16.093Z,2.77
2022-12-26T17:41:04.146Z,3.57
2022-12-26T17:43:49.621Z,3.47
2022-12-26T17:46:34.745Z,3.17
2022-12-26T17:49:20.028Z,3.40
2022-12-26T17:52:05.924Z,2.70
2022-12-26T17:54:51.507Z,3.07
2022-12-26T17:57:36.734Z,3.60
2022-12-26T18:00:25.024Z,34.70
2022-12-26T18:03:17.650Z,3.00
2022-12-26T18:06:03.747Z,3.87
2022-12-26T18:08:49.255Z,2.67
2022-12-26T18:11:34.289Z,3.00
2022-12-26T18:14:21.456Z,3.27
2022-12-26T18:17:07.705Z,3.70
2022-12-26T18:19:52.853Z,3.20
2022-12-26T18:22:38.775Z,2.87
2022-12-26T18:25:25.830Z,3.07
2022-12-26T18:28:13.319Z,3.40
2022-12-26T18:30:58.240Z,3.10
2022-12-26T18:33:43.275Z,3.23
2022-12-26T18:36:34.809Z,3.30
2022-12-26T18:39:20.163Z,2.90
2022-12-26T18:42:06.788Z,3.47
2022-12-26T18:44:55.139Z,3.50
2022-12-26T18:47:40.511Z,3.40
2022-12-26T18:50:26.301Z,3.73
2022-12-26T18:53:12.209Z,3.47
2022-12-26T18:55:57.235Z,4.20
2022-12-26T18:58:42.585Z,3.37
2022-12-26T19:01:28.058Z,3.60
2022-12-26T19:04:15.465Z,3.30
2022-12-26T19:07:00.712Z,3.60
2022-12-26T19:09:50.028Z,3.70
2022-12-26T19:12:35.159Z,4.13
2022-12-26T19:15:21.053Z,3.97
2022-12-26T19:18:06.207Z,4.03
2022-12-26T19:20:51.383Z,3.77
2022-12-26T19:23:36.862Z,3.83
2022-12-26T19:26:22.878Z,4.20
2022-12-26T19:29:09.159Z,4.50
2022-12-26T19:31:54.139Z,4.10
2022-12-26T19:34:39.603Z,4.20
2022-12-26T19:37:24.622Z,4.43
2022-12-26T19:40:11.208Z,3.90
2022-12-26T19:42:56.616Z,3.87
2022-12-26T19:45:41.838Z,4.53
2022-12-26T19:48:27.002Z,4.20
2022-12-26T19:51:14.462Z,3.83
2022-12-26T19:53:59.726Z,4.27
2022-12-26T19:56:45.235Z,3.73
2022-12-26T19:59:30.422Z,3.70
2022-12-26T20:02:15.870Z,3.80
2022-12-26T20:05:01.249Z,4.23
2022-12-26T20:07:46.679Z,4.10
2022-12-26T20:10:31.843Z,4.20
2022-12-26T20:13:19.675Z,3.90
2022-12-26T20:16:07.404Z,3.13
2022-12-26T20:18:54.180Z,3.97
2022-12-26T20:21:39.531Z,5.00
2022-12-26T20:24:25.463Z,4.00
2022-12-26T20:27:10.627Z,3.43
2022-12-26T20:29:56.013Z,3.83
2022-12-26T20:32:41.358Z,3.73
2022-12-26T20:35:26.849Z,3.70
2022-12-26T20:38:12.437Z,3.70
2022-12-26T20:41:01.181Z,3.73
2022-12-26T20:43:47.919Z,3.70
2022-12-26T20:46:34.998Z,3.40
2022-12-26T20:49:20.541Z,3.37
2022-12-26T20:52:05.956Z,3.77
2022-12-26T20:54:51.171Z,3.57
2022-12-26T20:57:36.586Z,3.47
2022-12-26T21:00:22.147Z,3.80
2022-12-26T21:03:07.272Z,3.37
2022-12-26T21:05:52.798Z,3.27
2022-12-26T21:08:39.164Z,3.40
2022-12-26T21:11:30.225Z,3.43
2022-12-26T21:14:18.874Z,3.70
2022-12-26T21:17:04.075Z,3.47
2022-12-26T21:19:49.405Z,4.80
2022-12-26T21:22:34.629Z,3.83
2022-12-26T21:25:21.115Z,3.57
2022-12-26T21:28:06.422Z,3.50
2022-12-26T21:30:51.783Z,3.37
2022-12-26T21:33:44.261Z,3.33
2022-12-26T21:36:31.009Z,3.57
2022-12-26T21:39:16.401Z,3.37
2022-12-26T21:42:02.725Z,3.70
2022-12-26T21:44:47.895Z,3.43
2022-12-26T21:47:33.202Z,3.63
2022-12-26T21:50:18.597Z,3.50
2022-12-26T21:53:04.109Z,3.10
2022-12-26T21:55:49.313Z,3.17
2022-12-26T21:58:35.094Z,3.50
2022-12-26T22:01:21.835Z,3.10
2022-12-26T22:04:11.943Z,3.30
2022-12-26T22:06:57.196Z,3.50
2022-12-26T22:09:42.619Z,3.40
2022-12-26T22:12:28.559Z,3.43
2022-12-26T22:15:17.135Z,3.70
2022-12-26T22:18:02.308Z,4.37
2022-12-26T22:20:48.071Z,4.37
2022-12-26T22:23:34.017Z,5.10
2022-12-26T22:26:21.326Z,6.60
2022-12-26T22:29:06.471Z,5.03
2022-12-26T22:31:51.880Z,5.33
2022-12-26T22:34:37.103Z,6.53
2022-12-26T22:37:22.407Z,6.27
2022-12-26T22:40:08.317Z,5.80
2022-12-26T22:42:53.809Z,5.87
2022-12-26T22:45:40.131Z,6.40
2022-12-26T22:48:25.652Z,6.03
2022-12-26T22:51:20.565Z,4.87
2022-12-26T22:54:05.669Z,5.80
2022-12-26T22:56:50.717Z,5.30
2022-12-26T23:00:06.935Z,5.57
2022-12-26T23:02:41.211Z,5.00
2022-12-26T23:05:27.142Z,5.20
2022-12-26T23:08:24.893Z,4.03
2022-12-26T23:11:10.294Z,4.27
2022-12-26T23:13:56.106Z,4.00
2022-12-26T23:16:49.567Z,4.60
2022-12-26T23:19:43.024Z,4.10
2022-12-26T23:22:28.628Z,4.13
2022-12-26T23:25:14.166Z,4.00
2022-12-26T23:27:59.751Z,7.27
2022-12-26T23:30:45.345Z,4.00
2022-12-26T23:33:32.409Z,3.57
2022-12-26T23:36:17.616Z,4.37
2022-12-26T23:39:03.411Z,3.83
2022-12-26T23:41:48.916Z,3.90
2022-12-26T23:44:34.127Z,3.50
2022-12-26T23:47:19.735Z,4.03
2022-12-26T23:50:06.872Z,3.63
2022-12-26T23:52:52.063Z,3.50
2022-12-26T23:55:41.185Z,3.50
2022-12-26T23:58:26.344Z,3.40
